Time;durP1;ratioP1;P1;durP2;ratioP2;P2;SDS_P1;SDS_P2;PMS_P1;PMS_P2;Temp;Humidity;BMP_temperature;BMP_pressure;BME280_temperature;BME280_humidity;BME280_pressure;Samples;Min_cycle;Max_cycle;Signal;HPM_P1;HPM_P2
2022/07/11 00:01:44;;;;;;;1999.90;999.90;;;;;;;12.14;100.00;99825.91;5046490;28;20071;-54
2022/07/11 00:04:30;;;;;;;1999.90;999.90;;;;;;;12.01;100.00;99833.31;5045282;28;20154;-54
2022/07/11 00:07:15;;;;;;;1999.90;999.90;;;;;;;12.05;100.00;99829.69;5044171;28;20051;-53
2022/07/11 00:09:59;;;;;;;1999.90;999.90;;;;;;;12.10;100.00;99832.19;5045709;28;20091;-54
2022/07/11 00:12:44;;;;;;;1999.90;999.90;;;;;;;12.07;100.00;99827.03;5047908;28;20044;-54
2022/07/11 00:15:28;;;;;;;1999.90;999.90;;;;;;;11.98;100.00;99820.28;5047567;28;20038;-54
2022/07/11 00:18:12;;;;;;;1999.90;999.90;;;;;;;12.05;100.00;99829.69;5048495;28;20090;-53
2022/07/11 00:20:57;;;;;;;1999.90;999.90;;;;;;;11.97;100.00;99823.81;5047881;28;20047;-54
2022/07/11 00:23:41;;;;;;;1999.90;999.90;;;;;;;12.00;100.00;99823.72;5048471;28;20055;-53
2022/07/11 00:26:25;;;;;;;1999.90;999.90;;;;;;;12.06;100.00;99826.16;5044995;28;20049;-52
2022/07/11 00:29:10;;;;;;;1999.90;999.90;;;;;;;12.08;100.00;99828.72;5046329;28;20064;-54
2022/07/11 00:31:55;;;;;;;1999.90;999.90;;;;;;;12.08;100.00;99826.97;5046804;28;20132;-54
2022/07/11 00:34:39;;;;;;;1999.90;999.90;;;;;;;12.14;100.00;99829.41;5043548;28;20401;-54
2022/07/11 00:37:23;;;;;;;1999.90;999.90;;;;;;;12.11;100.00;99823.38;5049509;28;20043;-53
2022/07/11 00:40:09;;;;;;;1999.90;999.90;;;;;;;12.20;100.00;99817.84;5046150;28;20049;-53
2022/07/11 00:42:53;;;;;;;1999.90;999.90;;;;;;;12.00;100.00;99813.22;5044688;28;20041;-53
2022/07/11 00:45:38;;;;;;;1999.90;999.90;;;;;;;12.10;100.00;99819.91;5047094;28;20067;-53
2022/07/11 00:48:22;;;;;;;1999.90;999.90;;;;;;;12.07;100.00;99817.38;5047385;28;20035;-54
2022/07/11 00:51:07;;;;;;;1999.90;999.90;;;;;;;12.05;100.00;99811.31;5044315;28;20043;-53
2022/07/11 00:53:53;;;;;;;1999.90;999.90;;;;;;;11.99;100.00;99814.16;5045199;28;20067;-54
2022/07/11 00:56:38;;;;;;;1999.90;999.90;;;;;;;12.20;100.00;99811.75;5047318;28;20053;-54
2022/07/11 00:59:23;;;;;;;1999.90;999.90;;;;;;;12.16;100.00;99808.38;5045901;28;20130;-54
2022/07/11 01:02:07;;;;;;;1999.90;999.90;;;;;;;12.11;100.00;99815.50;5042962;28;20052;-54
2022/07/11 01:04:52;;;;;;;1999.90;999.90;;;;;;;12.22;100.00;99810.78;5041190;28;20045;-53
2022/07/11 01:07:38;;;;;;;1999.90;999.90;;;;;;;12.24;100.00;99810.72;5044533;28;20048;-53
2022/07/11 01:10:23;;;;;;;1999.90;999.90;;;;;;;12.31;100.00;99810.47;5044504;28;20103;-54
2022/07/11 01:13:08;;;;;;;1999.90;999.90;;;;;;;12.38;100.00;99803.25;5042814;28;20045;-53
2022/07/11 01:16:12;;;;;;;1999.90;999.90;;;;;;;12.45;100.00;99809.19;5043598;28;20526;-54
2022/07/11 01:18:57;;;;;;;1999.90;999.90;;;;;;;12.42;100.00;99810.16;5041620;28;20051;-53
2022/07/11 01:21:45;;;;;;;1999.90;999.90;;;;;;;12.22;100.00;99817.78;5045096;28;20511;-54
2022/07/11 01:24:31;;;;;;;1999.90;999.90;;;;;;;12.09;100.00;99815.56;5042914;28;20199;-54
2022/07/11 01:27:15;;;;;;;1999.90;999.90;;;;;;;11.90;100.00;99803.91;5043718;28;20060;-55
2022/07/11 01:30:00;;;;;;;1999.90;999.90;;;;;;;12.03;100.00;99818.38;5041164;28;20052;-53
2022/07/11 01:32:44;;;;;;;1999.90;999.90;;;;;;;11.95;100.00;99807.25;5043148;28;20052;-53
2022/07/11 01:35:29;;;;;;;1999.90;999.90;;;;;;;11.89;100.00;99805.69;5047121;28;20851;-53
2022/07/11 01:38:13;;;;;;;1999.90;999.90;;;;;;;11.98;100.00;99811.53;5043283;28;20098;-53
2022/07/11 01:40:58;;;;;;;1999.90;999.90;;;;;;;12.10;100.00;99805.94;5046160;28;20967;-53
2022/07/11 01:43:42;;;;;;;1999.90;999.90;;;;;;;12.04;100.00;99809.59;5045715;28;20055;-53
2022/07/11 01:46:27;;;;;;;1999.90;999.90;;;;;;;12.05;100.00;99795.56;5042949;28;20053;-54
2022/07/11 01:49:12;;;;;;;1999.90;999.90;;;;;;;11.92;100.00;99804.72;5043876;28;20067;-53
2022/07/11 01:51:56;;;;;;;1999.90;999.90;;;;;;;11.94;100.00;99802.91;5043864;28;20052;-52
2022/07/11 01:54:41;;;;;;;1999.90;999.90;;;;;;;12.06;100.00;99805.16;5044285;28;20083;-53
2022/07/11 01:57:25;;;;;;;1999.90;999.90;;;;;;;12.10;100.00;99806.78;5045148;28;20060;-53
2022/07/11 02:00:11;;;;;;;1999.90;999.90;;;;;;;12.14;100.00;99799.66;5047078;28;20071;-54
2022/07/11 02:02:56;;;;;;;1999.90;999.90;;;;;;;12.10;100.00;99798.06;5048858;28;20045;-54
2022/07/11 02:05:40;;;;;;;1999.90;999.90;;;;;;;12.02;100.00;99806.16;5044513;28;20052;-54
2022/07/11 02:08:25;;;;;;;1999.90;999.90;;;;;;;12.09;100.00;99804.19;5045145;28;20098;-53
2022/07/11 02:11:09;;;;;;;1999.90;999.90;;;;;;;12.12;100.00;99799.72;5048542;28;20056;-53
2022/07/11 02:13:54;;;;;;;1999.90;999.90;;;;;;;12.02;100.00;99800.03;5046807;28;20056;-55
2022/07/11 02:16:38;;;;;;;1999.90;999.90;;;;;;;12.06;100.00;99796.44;5046889;28;20049;-54
2022/07/11 02:19:23;;;;;;;1999.90;999.90;;;;;;;12.05;100.00;99802.56;5046935;28;20055;-54
2022/07/11 02:22:07;;;;;;;1999.90;999.90;;;;;;;11.95;100.00;99804.63;5048584;28;20127;-53
2022/07/11 02:24:52;;;;;;;1999.90;999.90;;;;;;;11.92;100.00;99800.31;5046694;28;20122;-53
2022/07/11 02:27:36;;;;;;;1999.90;999.90;;;;;;;11.90;100.00;99799.53;5046127;28;20052;-54
2022/07/11 02:30:21;;;;;;;1999.90;999.90;;;;;;;11.71;100.00;99803.56;5044730;28;20048;-54
2022/07/11 02:33:07;;;;;;;1999.90;999.90;;;;;;;11.81;100.00;99802.41;5046896;28;20045;-53
2022/07/11 02:35:51;;;;;;;1999.90;999.90;;;;;;;11.67;100.00;99802.81;5044229;28;20048;-55
2022/07/11 02:38:36;;;;;;;1999.90;999.90;;;;;;;11.79;100.00;99803.34;5045905;28;20544;-54
2022/07/11 02:41:20;;;;;;;1999.90;999.90;;;;;;;11.62;100.00;99803.84;5048617;28;20052;-54
2022/07/11 02:44:04;;;;;;;1999.90;999.90;;;;;;;11.51;100.00;99805.94;5048212;28;20645;-54
2022/07/11 02:46:49;;;;;;;1999.90;999.90;;;;;;;11.60;100.00;99809.16;5048684;28;20072;-53
2022/07/11 02:49:33;;;;;;;1999.90;999.90;;;;;;;11.42;100.00;99810.53;5047877;28;20060;-54
2022/07/11 02:52:18;;;;;;;1999.90;999.90;;;;;;;11.46;100.00;99809.53;5047497;28;20395;-54
2022/07/11 02:55:03;;;;;;;1999.90;999.90;;;;;;;11.33;100.00;99807.31;5060476;28;20060;-53
2022/07/11 02:57:47;;;;;;;1999.90;999.90;;;;;;;11.27;100.00;99807.47;5046255;28;20054;-53
2022/07/11 03:00:32;;;;;;;1999.90;999.90;;;;;;;11.22;100.00;99812.84;5047740;28;20213;-52
2022/07/11 03:03:16;;;;;;;1999.90;999.90;;;;;;;11.21;100.00;99816.34;5043143;28;20562;-54
2022/07/11 03:06:00;;;;;;;1999.90;999.90;;;;;;;11.11;100.00;99818.38;5051003;28;20080;-53
2022/07/11 03:08:45;;;;;;;1999.90;999.90;;;;;;;11.23;100.00;99811.94;5044249;28;20050;-53
2022/07/11 03:11:31;;;;;;;1999.90;999.90;;;;;;;11.10;100.00;99818.41;5046167;28;20057;-53
2022/07/11 03:14:16;;;;;;;1999.90;999.90;;;;;;;11.11;100.00;99807.88;5045585;28;20048;-53
2022/07/11 03:17:01;;;;;;;1999.90;999.90;;;;;;;11.07;100.00;99808.88;5047180;28;20591;-54
2022/07/11 03:19:46;;;;;;;1999.90;999.90;;;;;;;11.04;100.00;99813.34;5044353;28;20049;-54
2022/07/11 03:22:31;;;;;;;1999.90;999.90;;;;;;;10.86;100.00;99810.31;5046453;28;20063;-55
2022/07/11 03:25:15;;;;;;;1999.90;999.90;;;;;;;10.96;100.00;99824.91;5046369;28;20038;-52
2022/07/11 03:28:00;;;;;;;1999.90;999.90;;;;;;;10.99;100.00;99821.34;5044160;28;20102;-54
2022/07/11 03:30:44;;;;;;;1999.90;999.90;;;;;;;10.90;100.00;99818.97;5045121;28;20071;-53
2022/07/11 03:33:28;;;;;;;1999.90;999.90;;;;;;;10.84;100.00;99817.34;5045293;28;20066;-53
2022/07/11 03:36:13;;;;;;;1999.90;999.90;;;;;;;11.01;100.00;99814.28;5043400;28;20045;-54
2022/07/11 03:38:58;;;;;;;1999.90;999.90;;;;;;;10.87;100.00;99805.94;5046425;28;20404;-53
2022/07/11 03:41:43;;;;;;;1999.90;999.90;;;;;;;10.81;100.00;99814.81;5042743;28;20064;-54
2022/07/11 03:44:28;;;;;;;1999.90;999.90;;;;;;;10.91;100.00;99820.66;5048551;28;20076;-54
2022/07/11 03:47:13;;;;;;;1999.90;999.90;;;;;;;10.80;100.00;99810.47;5048485;28;20040;-52
2022/07/11 03:49:57;;;;;;;1999.90;999.90;;;;;;;10.90;100.00;99811.94;5044204;28;20087;-54
2022/07/11 03:52:42;;;;;;;1999.90;999.90;;;;;;;10.81;100.00;99819.19;5045637;28;20106;-53
2022/07/11 03:55:27;;;;;;;1999.90;999.90;;;;;;;10.93;100.00;99819.72;5046937;28;20070;-52
2022/07/11 03:58:11;;;;;;;1999.90;999.90;;;;;;;11.08;100.00;99817.59;5045403;28;20483;-53
2022/07/11 04:00:56;;;;;;;1999.90;999.90;;;;;;;11.07;100.00;99819.34;5047945;28;20621;-54
2022/07/11 04:03:40;;;;;;;1999.90;999.90;;;;;;;11.00;100.00;99826.53;5046818;28;20050;-54
2022/07/11 04:06:25;;;;;;;1999.90;999.90;;;;;;;11.11;100.00;99830.63;5045416;28;20047;-52
2022/07/11 04:09:10;;;;;;;1999.90;999.90;;;;;;;11.18;100.00;99835.66;5045357;28;20044;-54
2022/07/11 04:11:54;;;;;;;1999.90;999.90;;;;;;;11.21;100.00;99827.72;5046765;28;20220;-54
2022/07/11 04:14:39;;;;;;;1999.90;999.90;;;;;;;11.59;100.00;99835.41;5047102;28;20098;-54
2022/07/11 04:17:23;;;;;;;1999.90;999.90;;;;;;;11.65;100.00;99827.38;5046073;28;20047;-54
2022/07/11 04:20:08;;;;;;;1999.90;999.90;;;;;;;11.72;100.00;99820.16;5042204;28;20060;-54
2022/07/11 04:22:52;;;;;;;1999.90;999.90;;;;;;;12.03;100.00;99821.00;5045009;28;20061;-55
2022/07/11 04:25:37;;;;;;;1999.90;999.90;;;;;;;12.28;100.00;99818.44;5044615;28;20487;-54
2022/07/11 04:28:21;;;;;;;1999.90;999.90;;;;;;;12.46;100.00;99834.56;5043673;28;20084;-54
2022/07/11 04:31:05;;;;;;;1999.90;999.90;;;;;;;12.57;100.00;99829.78;5046773;28;20053;-53
2022/07/11 04:33:50;;;;;;;1999.90;999.90;;;;;;;12.83;100.00;99835.03;5044547;28;20051;-54
2022/07/11 04:36:34;;;;;;;1999.90;999.90;;;;;;;13.02;100.00;99829.16;5045026;28;20079;-53
2022/07/11 04:39:18;;;;;;;1999.90;999.90;;;;;;;13.42;100.00;99826.03;5045319;28;20075;-54
2022/07/11 04:42:06;;;;;;;1999.90;999.90;;;;;;;13.55;100.00;99823.78;5046943;28;20052;-54
2022/07/11 04:44:50;;;;;;;1999.90;999.90;;;;;;;13.85;100.00;99829.69;5040857;28;20107;-52
2022/07/11 04:47:35;;;;;;;1999.90;999.90;;;;;;;13.82;100.00;99824.53;5043917;28;20049;-53
2022/07/11 04:50:20;;;;;;;1999.90;999.90;;;;;;;13.68;100.00;99834.69;5047940;28;20155;-54
2022/07/11 04:53:04;;;;;;;1999.90;999.90;;;;;;;14.17;100.00;99833.69;5041393;28;20545;-54
2022/07/11 04:55:49;;;;;;;1999.90;999.90;;;;;;;14.59;100.00;99835.56;5044290;28;20133;-52
2022/07/11 04:58:35;;;;;;;1999.90;999.90;;;;;;;14.10;100.00;99833.97;5042749;28;20049;-53
2022/07/11 05:01:19;;;;;;;1999.90;999.90;;;;;;;14.42;100.00;99837.97;5042697;28;20060;-53
2022/07/11 05:04:04;;;;;;;1999.90;999.90;;;;;;;14.18;100.00;99837.19;5043714;28;20044;-54
2022/07/11 05:06:48;;;;;;;1999.90;999.90;;;;;;;13.98;100.00;99828.28;5044523;28;20041;-52
2022/07/11 05:09:33;;;;;;;1999.90;999.90;;;;;;;14.25;100.00;99836.88;5045600;28;20045;-55
2022/07/11 05:12:17;;;;;;;1999.90;999.90;;;;;;;13.92;100.00;99836.41;5045744;28;20056;-53
2022/07/11 05:15:02;;;;;;;1999.90;999.90;;;;;;;14.85;100.00;99828.31;5044051;28;20503;-52
2022/07/11 05:17:46;;;;;;;1999.90;999.90;;;;;;;14.33;100.00;99833.97;5043258;28;20163;-54
2022/07/11 05:20:31;;;;;;;1999.90;999.90;;;;;;;14.18;100.00;99838.03;5043674;28;20575;-54
2022/07/11 05:23:15;;;;;;;1999.90;999.90;;;;;;;13.90;100.00;99845.28;5043768;28;20068;-53
2022/07/11 05:26:00;;;;;;;1999.90;999.90;;;;;;;14.71;100.00;99835.03;5046012;28;20052;-52
2022/07/11 05:28:45;;;;;;;1999.90;999.90;;;;;;;14.71;100.00;99828.91;5044129;28;20048;-53
2022/07/11 05:31:31;;;;;;;1999.90;999.90;;;;;;;14.83;100.00;99844.22;5048075;28;20056;-52
2022/07/11 05:34:16;;;;;;;1999.90;999.90;;;;;;;14.56;100.00;99845.34;5048550;28;20138;-52
2022/07/11 05:37:01;;;;;;;1999.90;999.90;;;;;;;15.48;100.00;99830.88;5047251;28;20428;-51
2022/07/11 05:39:46;;;;;;;1999.90;999.90;;;;;;;15.91;100.00;99842.16;5046206;28;20037;-53
2022/07/11 05:42:31;;;;;;;1999.90;999.90;;;;;;;15.97;100.00;99848.00;5045963;28;20114;-54
2022/07/11 05:45:15;;;;;;;1999.90;999.90;;;;;;;15.93;100.00;99848.22;5047064;28;20080;-54
2022/07/11 05:48:00;;;;;;;1999.90;999.90;;;;;;;16.32;100.00;99841.06;5051045;28;20045;-54
2022/07/11 05:50:44;;;;;;;1999.90;999.90;;;;;;;15.97;100.00;99845.38;5047738;28;20137;-52
2022/07/11 05:53:29;;;;;;;1999.90;999.90;;;;;;;15.62;100.00;99852.22;5048711;28;20073;-54
2022/07/11 05:56:13;;;;;;;1999.90;999.90;;;;;;;16.23;100.00;99848.56;5047969;28;20140;-52
2022/07/11 05:58:58;;;;;;;1999.90;999.90;;;;;;;16.49;100.00;99842.88;5046322;28;20076;-54
2022/07/11 06:01:42;;;;;;;1999.90;999.90;;;;;;;16.83;100.00;99849.16;5049621;28;20064;-53
2022/07/11 06:04:26;;;;;;;1999.90;999.90;;;;;;;17.12;100.00;99842.41;5046397;28;20065;-54
2022/07/11 06:07:11;;;;;;;1999.90;999.90;;;;;;;17.02;100.00;99843.81;5049095;28;20508;-52
2022/07/11 06:09:56;;;;;;;1999.90;999.90;;;;;;;17.25;100.00;99837.31;5047087;28;20056;-54
2022/07/11 06:12:41;;;;;;;1999.90;999.90;;;;;;;17.43;100.00;99840.81;5047949;28;20399;-54
2022/07/11 06:15:26;;;;;;;1999.90;999.90;;;;;;;18.02;100.00;99839.41;5045245;28;20076;-55
2022/07/11 06:18:10;;;;;;;1999.90;999.90;;;;;;;17.94;100.00;99844.28;5050267;28;20141;-52
2022/07/11 06:20:55;;;;;;;1999.90;999.90;;;;;;;18.22;100.00;99846.25;5048335;28;20734;-54
2022/07/11 06:23:41;;;;;;;1999.90;999.90;;;;;;;18.35;100.00;99849.06;5046170;28;20137;-54
2022/07/11 06:26:26;;;;;;;1999.90;999.90;;;;;;;18.68;100.00;99839.16;5048023;28;20053;-53
2022/07/11 06:29:10;;;;;;;1999.90;999.90;;;;;;;19.22;100.00;99843.16;5047644;28;20060;-53
2022/07/11 06:31:55;;;;;;;1999.90;999.90;;;;;;;18.60;100.00;99845.88;5045167;28;20077;-54
2022/07/11 06:34:39;;;;;;;1999.90;999.90;;;;;;;17.90;100.00;99846.22;5046855;28;20098;-53
2022/07/11 06:37:23;;;;;;;1999.90;999.90;;;;;;;17.36;100.00;99836.78;5047002;28;20071;-51
2022/07/11 06:40:10;;;;;;;1999.90;999.90;;;;;;;17.09;100.00;99833.75;5049782;28;20122;-52
2022/07/11 06:42:55;;;;;;;1999.90;999.90;;;;;;;16.86;100.00;99840.22;5047562;28;20090;-54
2022/07/11 06:45:39;;;;;;;1999.90;999.90;;;;;;;16.95;100.00;99837.13;5044665;28;20214;-53
2022/07/11 06:48:25;;;;;;;1999.90;999.90;;;;;;;16.99;100.00;99838.66;5046878;28;20060;-53
2022/07/11 06:51:09;;;;;;;1999.90;999.90;;;;;;;17.02;100.00;99843.81;5044530;28;20075;-53
2022/07/11 06:53:54;;;;;;;1999.90;999.90;;;;;;;16.69;100.00;99848.97;5048826;28;20460;-53
2022/07/11 06:56:38;;;;;;;1999.90;999.90;;;;;;;17.31;100.00;99846.75;5048877;28;20056;-53
2022/07/11 06:59:23;;;;;;;1999.90;999.90;;;;;;;16.84;100.00;99847.41;5046079;28;20408;-52
2022/07/11 07:02:08;;;;;;;1999.90;999.90;;;;;;;16.68;100.00;99858.69;5050442;28;20049;-52
2022/07/11 07:04:52;;;;;;;1999.90;999.90;;;;;;;16.57;100.00;99861.00;5044155;28;20052;-51
2022/07/11 07:07:37;;;;;;;1999.90;999.90;;;;;;;16.26;100.00;99877.50;5049281;28;20558;-52
2022/07/11 07:10:21;;;;;;;1999.90;999.90;;;;;;;15.80;100.00;99869.06;5051316;28;20041;-51
2022/07/11 07:13:06;;;;;;;1999.90;999.90;;;;;;;15.98;100.00;99864.72;5048348;28;20044;-51
2022/07/11 07:15:51;;;;;;;1999.90;999.90;;;;;;;15.94;100.00;99871.06;5049303;28;20499;-53
2022/07/11 07:18:40;;;;;;;1999.90;999.90;;;;;;;15.44;100.00;99875.03;5047794;28;20064;-51
2022/07/11 07:21:25;;;;;;;1999.90;999.90;;;;;;;15.16;100.00;99878.00;5048025;28;20041;-52
2022/07/11 07:24:10;;;;;;;1999.90;999.90;;;;;;;15.13;100.00;99881.63;5048946;28;20051;-52
2022/07/11 07:26:54;;;;;;;1999.90;999.90;;;;;;;15.20;100.00;99880.44;5046988;28;20091;-53
2022/07/11 07:29:38;;;;;;;1999.90;999.90;;;;;;;14.85;100.00;99868.75;5049226;28;20048;-53
2022/07/11 07:32:23;;;;;;;1999.90;999.90;;;;;;;14.83;100.00;99859.19;5044643;28;20083;-52
2022/07/11 07:35:07;;;;;;;1999.90;999.90;;;;;;;15.10;100.00;99871.19;5040764;28;20440;-51
2022/07/11 07:37:51;;;;;;;1999.90;999.90;;;;;;;14.71;100.00;99865.81;5044844;28;20056;-53
2022/07/11 07:40:35;;;;;;;1999.90;999.90;;;;;;;15.32;100.00;99862.38;5042955;28;20068;-52
2022/07/11 07:43:20;;;;;;;1999.90;999.90;;;;;;;16.01;100.00;99869.84;5043447;28;20110;-53
2022/07/11 07:46:05;;;;;;;1999.90;999.90;;;;;;;15.76;100.00;99863.06;5048341;28;20175;-53
2022/07/11 07:48:50;;;;;;;1999.90;999.90;;;;;;;16.86;100.00;99858.75;5048876;28;20056;-54
2022/07/11 07:51:34;;;;;;;1999.90;999.90;;;;;;;17.62;100.00;99848.66;5045704;28;20044;-51
2022/07/11 07:54:18;;;;;;;1999.90;999.90;;;;;;;18.63;100.00;99846.56;5046109;28;20504;-51
2022/07/11 07:57:03;;;;;;;1999.90;999.90;;;;;;;19.10;100.00;99842.94;5048377;28;20194;-52
2022/07/11 07:59:47;;;;;;;1999.90;999.90;;;;;;;19.19;100.00;99841.53;5046599;28;20447;-52
2022/07/11 08:02:32;;;;;;;1999.90;999.90;;;;;;;19.85;100.00;99834.84;5047905;28;20080;-54
2022/07/11 08:05:18;;;;;;;1999.90;999.90;;;;;;;20.34;100.00;99828.19;5045800;28;20063;-52
2022/07/11 08:08:03;;;;;;;1999.90;999.90;;;;;;;20.29;100.00;99840.00;5048021;28;20380;-52
2022/07/11 08:10:48;;;;;;;1999.90;999.90;;;;;;;19.33;100.00;99828.25;5047026;28;20060;-53
2022/07/11 08:13:32;;;;;;;1999.90;999.90;;;;;;;20.13;100.00;99830.44;5046408;28;20068;-52
2022/07/11 08:16:17;;;;;;;1999.90;999.90;;;;;;;19.71;100.00;99827.75;5046250;28;20053;-54
2022/07/11 08:19:03;;;;;;;1999.90;999.90;;;;;;;19.73;100.00;99825.84;5045939;28;20053;-53
2022/07/11 08:21:48;;;;;;;1999.90;999.90;;;;;;;20.96;100.00;99821.41;5046259;28;20048;-53
2022/07/11 08:24:32;;;;;;;1999.90;999.90;;;;;;;20.27;100.00;99823.28;5044702;28;20067;-56
2022/07/11 08:27:17;;;;;;;1999.90;999.90;;;;;;;18.88;100.00;99826.56;5045093;28;20111;-53
2022/07/11 08:30:03;;;;;;;1999.90;999.90;;;;;;;18.05;100.00;99841.03;5045938;28;20051;-53
2022/07/11 08:32:47;;;;;;;1999.90;999.90;;;;;;;16.35;100.00;99840.91;5046356;28;20430;-55
2022/07/11 08:35:32;;;;;;;1999.90;999.90;;;;;;;15.91;100.00;99855.38;5043359;28;20048;-55
2022/07/11 08:38:17;;;;;;;1999.90;999.90;;;;;;;15.32;100.00;99865.00;5046537;28;20052;-53
2022/07/11 08:41:02;;;;;;;1999.90;999.90;;;;;;;14.73;100.00;99880.66;5044220;28;20503;-53
2022/07/11 08:43:48;;;;;;;1999.90;999.90;;;;;;;14.61;100.00;99882.94;5044804;28;20051;-55
2022/07/11 08:46:33;;;;;;;1999.90;999.90;;;;;;;14.52;100.00;99859.56;5045299;28;20395;-55
2022/07/11 08:49:18;;;;;;;1999.90;999.90;;;;;;;13.82;100.00;99858.75;5044328;28;20950;-55
2022/07/11 08:52:05;;;;;;;1999.90;999.90;;;;;;;13.49;100.00;99842.44;5045849;28;20095;-54
2022/07/11 08:54:50;;;;;;;1999.90;999.90;;;;;;;13.89;100.00;99840.94;5047998;28;20064;-54
2022/07/11 08:57:36;;;;;;;1999.90;999.90;;;;;;;13.66;100.00;99853.19;5047136;28;20434;-53
2022/07/11 09:00:21;;;;;;;1999.90;999.90;;;;;;;13.59;100.00;99859.59;5045484;28;20045;-55
2022/07/11 09:03:07;;;;;;;1999.90;999.90;;;;;;;13.53;100.00;99868.56;5048802;28;20048;-53
2022/07/11 09:05:51;;;;;;;1999.90;999.90;;;;;;;13.29;100.00;99862.44;5045457;28;20565;-54
2022/07/11 09:08:36;;;;;;;1999.90;999.90;;;;;;;13.20;100.00;99870.59;5046390;28;20100;-55
2022/07/11 09:11:20;;;;;;;1999.90;999.90;;;;;;;13.36;100.00;99860.44;5045151;28;20037;-53
2022/07/11 09:14:20;;;;;;;1999.90;999.90;;;;;;;13.48;100.00;99870.50;5047306;28;20040;-55
2022/07/11 09:17:06;;;;;;;1999.90;999.90;;;;;;;13.39;100.00;99884.00;5045877;28;20067;-54
2022/07/11 09:19:51;;;;;;;1999.90;999.90;;;;;;;13.55;100.00;99872.03;5046088;28;21541;-55
2022/07/11 09:25:42;;;;;;;;;;;;;;;13.03;100.00;99878.19;5046219;28;20318;-55
2022/07/11 09:28:26;;;;;;;1999.90;999.90;;;;;;;12.90;100.00;99855.84;5046611;28;20009;-56
2022/07/11 09:31:17;;;;;;;1999.90;999.90;;;;;;;12.82;100.00;99846.47;5045381;28;20053;-55
2022/07/11 09:34:01;;;;;;;1999.90;999.90;;;;;;;13.47;100.00;99854.78;5046599;28;20504;-53
2022/07/11 09:36:48;;;;;;;1999.90;999.90;;;;;;;14.19;100.00;99857.34;5046130;28;20076;-55
2022/07/11 09:39:32;;;;;;;1999.90;999.90;;;;;;;16.25;100.00;99854.63;5043694;28;20488;-54
2022/07/11 09:42:16;;;;;;;1999.90;999.90;;;;;;;17.14;100.00;99847.63;5042800;28;20060;-54
2022/07/11 09:45:12;;;;;;;1999.90;999.90;;;;;;;17.31;100.00;99852.88;5043408;28;20076;-53
2022/07/11 09:48:07;;;;;;;1999.90;999.90;;;;;;;17.77;100.00;99854.94;5062864;28;20470;-54
2022/07/11 09:51:00;;;;;;;1999.90;999.90;;;;;;;18.59;100.00;99846.81;5047056;28;20041;-54
2022/07/11 09:53:56;;;;;;;1999.90;999.90;;;;;;;18.96;100.00;99839.41;5044030;28;20052;-53
2022/07/11 09:56:43;;;;;;;1999.90;999.90;;;;;;;18.72;100.00;99842.56;5047829;28;20044;-54
2022/07/11 09:59:27;;;;;;;1999.90;999.90;;;;;;;19.09;100.00;99840.38;5045628;28;20059;-54
2022/07/11 10:02:14;;;;;;;1999.90;999.90;;;;;;;18.43;100.00;99839.75;5045293;28;20052;-54
2022/07/11 10:05:00;;;;;;;1999.90;999.90;;;;;;;18.63;100.00;99843.91;5046957;28;20059;-54
2022/07/11 10:07:44;;;;;;;1999.90;999.90;;;;;;;19.68;100.00;99835.91;5044948;28;20049;-52
2022/07/11 10:10:30;;;;;;;1999.90;999.90;;;;;;;18.28;100.00;99839.75;5046672;28;20045;-54
2022/07/11 10:13:15;;;;;;;1999.90;999.90;;;;;;;20.23;100.00;99839.53;5046754;28;20053;-53
2022/07/11 10:16:03;;;;;;;1999.90;999.90;;;;;;;20.41;100.00;99834.81;5046569;28;20077;-52
2022/07/11 10:19:38;;;;;;;1999.90;999.90;;;;;;;18.66;100.00;99834.91;5047733;28;20092;-54
2022/07/11 10:22:43;;;;;;;1999.90;999.90;;;;;;;19.19;100.00;99843.34;5018279;28;20106;-54
2022/07/11 10:25:45;;;;;;;1999.90;999.90;;;;;;;19.32;100.00;99842.50;5049260;28;20049;-53
2022/07/11 10:28:53;;;;;;;1999.90;999.90;;;;;;;19.45;100.00;99833.78;5048146;28;20053;-54
2022/07/11 10:31:39;;;;;;;1999.90;999.90;;;;;;;19.79;100.00;99828.13;5047272;28;20495;-54
2022/07/11 10:34:27;;;;;;;1999.90;999.90;;;;;;;20.30;100.00;99833.72;5045601;28;20060;-53
2022/07/11 10:37:12;;;;;;;1999.90;999.90;;;;;;;20.38;100.00;99835.88;5048101;28;20049;-53
2022/07/11 10:39:58;;;;;;;1999.90;999.90;;;;;;;20.82;100.00;99832.13;5051447;28;20045;-53
2022/07/11 10:42:42;;;;;;;1999.90;999.90;;;;;;;20.76;100.00;99827.19;5048925;28;20051;-54
2022/07/11 10:45:27;;;;;;;1999.90;999.90;;;;;;;21.37;100.00;99827.53;5048859;28;20045;-53
2022/07/11 10:48:12;;;;;;;1999.90;999.90;;;;;;;21.63;100.00;99826.56;5046662;28;20056;-52
2022/07/11 10:51:21;;;;;;;1999.90;999.90;;;;;;;21.66;100.00;99828.16;5049337;28;20055;-54
2022/07/11 10:54:51;;;;;;;1999.90;999.90;;;;;;;21.67;100.00;99828.03;5048051;28;20049;-53
2022/07/11 10:57:55;;;;;;;1999.90;999.90;;;;;;;21.33;100.00;99834.84;5045508;28;20053;-52
2022/07/11 11:00:40;;;;;;;1999.90;999.90;;;;;;;20.58;100.00;99828.44;5046196;28;20628;-53
2022/07/11 11:03:24;;;;;;;1999.90;999.90;;;;;;;21.53;100.00;99821.97;5045382;28;20107;-53
2022/07/11 11:06:10;;;;;;;1999.90;999.90;;;;;;;20.33;100.00;99830.00;5039877;28;20053;-55
2022/07/11 11:08:54;;;;;;;1999.90;999.90;;;;;;;19.63;100.00;99837.97;5046138;28;20049;-54
2022/07/11 11:11:39;;;;;;;1999.90;999.90;;;;;;;20.23;100.00;99839.53;5045159;28;20091;-53
2022/07/11 11:14:26;;;;;;;1999.90;999.90;;;;;;;19.85;100.00;99824.22;5045640;28;20476;-52
2022/07/11 11:17:36;;;;;;;1999.90;999.90;;;;;;;20.25;100.00;99842.97;5045136;28;20477;-52
2022/07/11 11:20:30;;;;;;;1999.90;999.90;;;;;;;19.60;100.00;99833.69;5049510;28;20483;-54
2022/07/11 11:23:19;;;;;;;1999.90;999.90;;;;;;;19.54;100.00;99850.00;5045863;28;20404;-53
2022/07/11 11:26:20;;;;;;;1999.90;999.90;;;;;;;19.30;100.00;99849.72;5046283;28;20529;-54
2022/07/11 11:29:06;;;;;;;1999.90;999.90;;;;;;;18.64;100.00;99847.41;5043742;28;20044;-55
2022/07/11 11:31:54;;;;;;;1999.90;999.90;;;;;;;18.61;100.00;99858.19;5045295;28;20090;-53
2022/07/11 11:34:41;;;;;;;1999.90;999.90;;;;;;;17.73;100.00;99859.50;5047778;28;20083;-54
2022/07/11 11:37:26;;;;;;;1999.90;999.90;;;;;;;17.19;100.00;99882.63;5043296;28;20052;-54
2022/07/11 11:40:12;;;;;;;1999.90;999.90;;;;;;;15.77;100.00;99909.66;5041171;28;20053;-54
2022/07/11 11:42:56;;;;;;;1999.90;999.90;;;;;;;14.75;100.00;99901.66;5041724;28;20400;-53
2022/07/11 11:45:48;;;;;;;1999.90;999.90;;;;;;;15.14;100.00;99890.38;5040452;28;20047;-51
2022/07/11 11:48:37;;;;;;;1999.90;999.90;;;;;;;15.50;100.00;99892.34;5042633;28;20126;-52
2022/07/11 11:51:22;;;;;;;1999.90;999.90;;;;;;;15.88;100.00;99891.53;5043219;28;20049;-52
2022/07/11 11:54:06;;;;;;;1999.90;999.90;;;;;;;15.97;100.00;99890.28;5040334;28;20079;-53
2022/07/11 11:56:51;;;;;;;1999.90;999.90;;;;;;;17.19;100.00;99885.28;5041636;28;20072;-53
2022/07/11 11:59:35;;;;;;;1999.90;999.90;;;;;;;18.13;100.00;99883.84;5044393;28;20051;-53
2022/07/11 12:02:22;;;;;;;1999.90;999.90;;;;;;;18.53;100.00;99884.31;5044280;28;20447;-53
2022/07/11 12:05:07;;;;;;;1999.90;999.90;;;;;;;18.07;100.00;99886.84;5044727;28;20143;-54
2022/07/11 12:07:52;;;;;;;1999.90;999.90;;;;;;;18.82;100.00;99891.47;5045051;28;20041;-53
2022/07/11 12:10:36;;;;;;;1999.90;999.90;;;;;;;18.85;100.00;99890.47;5044234;28;20106;-53
2022/07/11 12:13:21;;;;;;;1999.90;999.90;;;;;;;18.76;100.00;99881.22;5044976;28;20033;-54